sensor_id;sensor_type;location;lat;lon;timestamp;P1;durP1;ratioP1;P2;durP2;ratioP2
52816;SDS011;38687;43.330;21.924;2024-03-02T00:01:05;13.85;;;10.57;;
52816;SDS011;38687;43.330;21.924;2024-03-02T00:03:31;9.02;;;5.22;;
52816;SDS011;38687;43.330;21.924;2024-03-02T00:05:57;12.05;;;9.52;;
52816;SDS011;38687;43.330;21.924;2024-03-02T00:08:23;13.52;;;9.48;;
52816;SDS011;38687;43.330;21.924;2024-03-02T00:10:49;11.43;;;9.93;;
52816;SDS011;38687;43.330;21.924;2024-03-02T00:13:15;10.35;;;5.60;;
52816;SDS011;38687;43.330;21.924;2024-03-02T00:15:47;9.10;;;8.13;;
52816;SDS011;38687;43.330;21.924;2024-03-02T00:18:18;15.10;;;9.48;;
52816;SDS011;38687;43.330;21.924;2024-03-02T00:20:46;9.57;;;8.20;;
52816;SDS011;38687;43.330;21.924;2024-03-02T00:23:14;10.73;;;5.28;;
52816;SDS011;38687;43.330;21.924;2024-03-02T00:25:43;12.90;;;10.55;;
52816;SDS011;38687;43.330;21.924;2024-03-02T00:28:25;13.40;;;7.60;;
52816;SDS011;38687;43.330;21.924;2024-03-02T00:31:06;13.50;;;10.90;;
52816;SDS011;38687;43.330;21.924;2024-03-02T00:33:50;14.48;;;6.90;;
52816;SDS011;38687;43.330;21.924;2024-03-02T00:36:24;13.68;;;10.75;;
52816;SDS011;38687;43.330;21.924;2024-03-02T00:41:28;12.10;;;6.22;;
52816;SDS011;38687;43.330;21.924;2024-03-02T00:44:01;14.30;;;10.95;;
52816;SDS011;38687;43.330;21.924;2024-03-02T00:46:36;14.40;;;11.73;;
52816;SDS011;38687;43.330;21.924;2024-03-02T00:49:03;11.55;;;6.65;;
52816;SDS011;38687;43.330;21.924;2024-03-02T00:51:32;15.45;;;6.28;;
52816;SDS011;38687;43.330;21.924;2024-03-02T00:54:01;11.43;;;9.15;;
52816;SDS011;38687;43.330;21.924;2024-03-02T00:56:29;13.23;;;6.18;;
52816;SDS011;38687;43.330;21.924;2024-03-02T00:58:57;12.07;;;10.55;;
52816;SDS011;38687;43.330;21.924;2024-03-02T01:01:22;14.48;;;10.38;;
52816;SDS011;38687;43.330;21.924;2024-03-02T01:03:48;13.75;;;7.00;;
52816;SDS011;38687;43.330;21.924;2024-03-02T01:06:14;13.38;;;7.95;;
52816;SDS011;38687;43.330;21.924;2024-03-02T01:08:39;14.52;;;11.07;;
52816;SDS011;38687;43.330;21.924;2024-03-02T01:11:05;15.35;;;11.73;;
52816;SDS011;38687;43.330;21.924;2024-03-02T01:13:33;14.05;;;11.60;;
52816;SDS011;38687;43.330;21.924;2024-03-02T01:15:59;12.80;;;11.02;;
52816;SDS011;38687;43.330;21.924;2024-03-02T01:18:24;13.23;;;11.02;;
52816;SDS011;38687;43.330;21.924;2024-03-02T01:20:56;13.70;;;6.82;;
52816;SDS011;38687;43.330;21.924;2024-03-02T01:23:24;12.95;;;9.43;;
52816;SDS011;38687;43.330;21.924;2024-03-02T01:25:50;11.52;;;8.98;;
52816;SDS011;38687;43.330;21.924;2024-03-02T01:28:15;9.52;;;8.18;;
52816;SDS011;38687;43.330;21.924;2024-03-02T01:30:41;9.07;;;7.10;;
52816;SDS011;38687;43.330;21.924;2024-03-02T01:33:06;10.13;;;7.57;;
52816;SDS011;38687;43.330;21.924;2024-03-02T01:35:32;9.63;;;6.90;;
52816;SDS011;38687;43.330;21.924;2024-03-02T01:37:57;5.50;;;3.97;;
52816;SDS011;38687;43.330;21.924;2024-03-02T01:40:22;9.18;;;7.40;;
52816;SDS011;38687;43.330;21.924;2024-03-02T01:42:54;9.52;;;7.30;;
52816;SDS011;38687;43.330;21.924;2024-03-02T01:45:20;9.82;;;7.82;;
52816;SDS011;38687;43.330;21.924;2024-03-02T01:47:46;11.80;;;5.05;;
52816;SDS011;38687;43.330;21.924;2024-03-02T01:50:11;8.23;;;7.43;;
52816;SDS011;38687;43.330;21.924;2024-03-02T01:52:37;10.07;;;7.82;;
52816;SDS011;38687;43.330;21.924;2024-03-02T01:55:02;7.03;;;3.90;;
52816;SDS011;38687;43.330;21.924;2024-03-02T01:57:37;9.25;;;7.18;;
52816;SDS011;38687;43.330;21.924;2024-03-02T02:00:03;9.73;;;4.95;;
52816;SDS011;38687;43.330;21.924;2024-03-02T02:02:28;3.55;;;3.20;;
52816;SDS011;38687;43.330;21.924;2024-03-02T02:04:54;7.70;;;6.65;;
52816;SDS011;38687;43.330;21.924;2024-03-02T02:07:19;7.90;;;3.92;;
52816;SDS011;38687;43.330;21.924;2024-03-02T02:09:45;7.97;;;6.80;;
52816;SDS011;38687;43.330;21.924;2024-03-02T02:12:13;7.78;;;6.97;;
52816;SDS011;38687;43.330;21.924;2024-03-02T02:14:38;8.68;;;6.32;;
52816;SDS011;38687;43.330;21.924;2024-03-02T02:17:05;7.10;;;3.53;;
52816;SDS011;38687;43.330;21.924;2024-03-02T02:19:30;4.15;;;2.92;;
52816;SDS011;38687;43.330;21.924;2024-03-02T02:21:55;5.40;;;2.97;;
52816;SDS011;38687;43.330;21.924;2024-03-02T02:24:23;8.05;;;6.63;;
52816;SDS011;38687;43.330;21.924;2024-03-02T02:26:52;6.63;;;5.88;;
52816;SDS011;38687;43.330;21.924;2024-03-02T02:29:20;6.55;;;5.95;;
52816;SDS011;38687;43.330;21.924;2024-03-02T02:31:45;8.20;;;3.78;;
52816;SDS011;38687;43.330;21.924;2024-03-02T02:34:10;8.25;;;3.97;;
52816;SDS011;38687;43.330;21.924;2024-03-02T02:36:37;5.88;;;5.28;;
52816;SDS011;38687;43.330;21.924;2024-03-02T02:39:06;5.30;;;4.80;;
52816;SDS011;38687;43.330;21.924;2024-03-02T02:41:35;5.93;;;5.32;;
52816;SDS011;38687;43.330;21.924;2024-03-02T02:44:01;6.13;;;5.40;;
52816;SDS011;38687;43.330;21.924;2024-03-02T02:46:26;6.03;;;3.30;;
52816;SDS011;38687;43.330;21.924;2024-03-02T02:48:51;9.93;;;5.22;;
52816;SDS011;38687;43.330;21.924;2024-03-02T02:51:18;7.25;;;5.18;;
52816;SDS011;38687;43.330;21.924;2024-03-02T02:53:43;5.28;;;2.60;;
52816;SDS011;38687;43.330;21.924;2024-03-02T02:56:09;4.95;;;4.50;;
52816;SDS011;38687;43.330;21.924;2024-03-02T02:58:34;5.35;;;3.03;;
52816;SDS011;38687;43.330;21.924;2024-03-02T03:01:00;5.88;;;4.97;;
52816;SDS011;38687;43.330;21.924;2024-03-02T03:03:25;6.30;;;2.60;;
52816;SDS011;38687;43.330;21.924;2024-03-02T03:05:50;3.28;;;2.40;;
52816;SDS011;38687;43.330;21.924;2024-03-02T03:08:16;5.10;;;2.92;;
52816;SDS011;38687;43.330;21.924;2024-03-02T03:10:44;5.63;;;3.15;;
52816;SDS011;38687;43.330;21.924;2024-03-02T03:13:09;5.82;;;3.35;;
52816;SDS011;38687;43.330;21.924;2024-03-02T03:15:35;3.03;;;2.58;;
52816;SDS011;38687;43.330;21.924;2024-03-02T03:18:07;5.47;;;3.10;;
52816;SDS011;38687;43.330;21.924;2024-03-02T03:20:36;5.53;;;4.70;;
52816;SDS011;38687;43.330;21.924;2024-03-02T03:23:01;4.38;;;2.53;;
52816;SDS011;38687;43.330;21.924;2024-03-02T03:25:26;3.63;;;2.60;;
52816;SDS011;38687;43.330;21.924;2024-03-02T03:27:51;2.17;;;1.95;;
52816;SDS011;38687;43.330;21.924;2024-03-02T03:30:17;5.05;;;2.72;;
52816;SDS011;38687;43.330;21.924;2024-03-02T03:32:43;4.28;;;3.88;;
52816;SDS011;38687;43.330;21.924;2024-03-02T03:35:08;4.50;;;2.47;;
52816;SDS011;38687;43.330;21.924;2024-03-02T03:37:34;5.63;;;4.80;;
52816;SDS011;38687;43.330;21.924;2024-03-02T03:39:59;6.57;;;5.50;;
52816;SDS011;38687;43.330;21.924;2024-03-02T03:42:26;7.43;;;5.75;;
52816;SDS011;38687;43.330;21.924;2024-03-02T03:44:51;5.40;;;2.88;;
52816;SDS011;38687;43.330;21.924;2024-03-02T03:47:16;3.25;;;2.30;;
52816;SDS011;38687;43.330;21.924;2024-03-02T03:49:41;4.95;;;2.45;;
52816;SDS011;38687;43.330;21.924;2024-03-02T03:52:10;11.27;;;3.58;;
52816;SDS011;38687;43.330;21.924;2024-03-02T03:54:35;5.93;;;2.97;;
52816;SDS011;38687;43.330;21.924;2024-03-02T03:57:02;5.50;;;2.75;;
52816;SDS011;38687;43.330;21.924;2024-03-02T03:59:27;6.00;;;5.18;;
52816;SDS011;38687;43.330;21.924;2024-03-02T04:01:52;6.28;;;4.82;;
52816;SDS011;38687;43.330;21.924;2024-03-02T04:04:21;6.55;;;3.55;;
52816;SDS011;38687;43.330;21.924;2024-03-02T04:06:53;7.30;;;6.03;;
52816;SDS011;38687;43.330;21.924;2024-03-02T04:09:21;8.52;;;6.57;;
52816;SDS011;38687;43.330;21.924;2024-03-02T04:11:55;5.15;;;3.13;;
52816;SDS011;38687;43.330;21.924;2024-03-02T04:14:21;6.93;;;5.55;;
52816;SDS011;38687;43.330;21.924;2024-03-02T04:16:46;7.53;;;5.72;;
52816;SDS011;38687;43.330;21.924;2024-03-02T04:19:11;6.53;;;3.38;;
52816;SDS011;38687;43.330;21.924;2024-03-02T04:21:46;8.05;;;6.18;;
52816;SDS011;38687;43.330;21.924;2024-03-02T04:24:14;6.25;;;3.55;;
52816;SDS011;38687;43.330;21.924;2024-03-02T04:26:39;7.80;;;6.00;;
52816;SDS011;38687;43.330;21.924;2024-03-02T04:29:08;6.55;;;3.92;;
52816;SDS011;38687;43.330;21.924;2024-03-02T04:31:33;6.45;;;5.85;;
52816;SDS011;38687;43.330;21.924;2024-03-02T04:33:58;6.25;;;2.97;;
52816;SDS011;38687;43.330;21.924;2024-03-02T04:36:23;6.45;;;5.82;;
52816;SDS011;38687;43.330;21.924;2024-03-02T04:38:49;7.85;;;6.15;;
52816;SDS011;38687;43.330;21.924;2024-03-02T04:41:14;7.32;;;4.53;;
52816;SDS011;38687;43.330;21.924;2024-03-02T04:43:39;8.52;;;7.70;;
52816;SDS011;38687;43.330;21.924;2024-03-02T04:46:05;8.40;;;7.30;;
52816;SDS011;38687;43.330;21.924;2024-03-02T04:48:30;7.75;;;6.32;;
52816;SDS011;38687;43.330;21.924;2024-03-02T04:50:56;6.15;;;3.38;;
52816;SDS011;38687;43.330;21.924;2024-03-02T04:53:21;5.53;;;3.63;;
52816;SDS011;38687;43.330;21.924;2024-03-02T04:55:46;5.32;;;3.60;;
52816;SDS011;38687;43.330;21.924;2024-03-02T04:58:21;7.05;;;6.00;;
52816;SDS011;38687;43.330;21.924;2024-03-02T05:00:46;7.07;;;5.60;;
52816;SDS011;38687;43.330;21.924;2024-03-02T05:03:14;7.55;;;3.20;;
52816;SDS011;38687;43.330;21.924;2024-03-02T05:05:40;6.15;;;5.28;;
52816;SDS011;38687;43.330;21.924;2024-03-02T05:08:11;6.63;;;3.45;;
52816;SDS011;38687;43.330;21.924;2024-03-02T05:10:37;7.53;;;6.70;;
52816;SDS011;38687;43.330;21.924;2024-03-02T05:13:02;5.95;;;5.38;;
52816;SDS011;38687;43.330;21.924;2024-03-02T05:15:28;6.78;;;5.53;;
52816;SDS011;38687;43.330;21.924;2024-03-02T05:17:53;5.38;;;4.90;;
52816;SDS011;38687;43.330;21.924;2024-03-02T05:20:18;3.40;;;2.47;;
52816;SDS011;38687;43.330;21.924;2024-03-02T05:22:43;4.18;;;3.70;;
52816;SDS011;38687;43.330;21.924;2024-03-02T05:25:09;4.22;;;2.50;;
52816;SDS011;38687;43.330;21.924;2024-03-02T05:27:40;4.05;;;2.60;;
52816;SDS011;38687;43.330;21.924;2024-03-02T05:30:06;5.95;;;3.03;;
52816;SDS011;38687;43.330;21.924;2024-03-02T05:32:32;5.95;;;5.35;;
52816;SDS011;38687;43.330;21.924;2024-03-02T05:34:57;6.43;;;3.50;;
52816;SDS011;38687;43.330;21.924;2024-03-02T05:37:22;7.13;;;6.13;;
52816;SDS011;38687;43.330;21.924;2024-03-02T05:39:47;10.82;;;5.00;;
52816;SDS011;38687;43.330;21.924;2024-03-02T05:42:15;8.02;;;7.10;;
52816;SDS011;38687;43.330;21.924;2024-03-02T05:44:41;7.60;;;4.35;;
52816;SDS011;38687;43.330;21.924;2024-03-02T05:47:07;9.63;;;7.97;;
52816;SDS011;38687;43.330;21.924;2024-03-02T05:49:33;9.55;;;7.07;;
52816;SDS011;38687;43.330;21.924;2024-03-02T05:51:59;8.82;;;4.65;;
52816;SDS011;38687;43.330;21.924;2024-03-02T05:54:24;5.95;;;4.40;;
52816;SDS011;38687;43.330;21.924;2024-03-02T05:56:52;7.47;;;6.78;;
52816;SDS011;38687;43.330;21.924;2024-03-02T05:59:17;4.93;;;3.75;;
52816;SDS011;38687;43.330;21.924;2024-03-02T06:01:43;6.20;;;5.60;;
52816;SDS011;38687;43.330;21.924;2024-03-02T06:04:09;6.85;;;4.20;;
52816;SDS011;38687;43.330;21.924;2024-03-02T06:06:39;7.93;;;4.55;;
52816;SDS011;38687;43.330;21.924;2024-03-02T06:09:04;9.63;;;4.75;;
52816;SDS011;38687;43.330;21.924;2024-03-02T06:11:45;6.47;;;4.30;;
52816;SDS011;38687;43.330;21.924;2024-03-02T06:14:10;8.30;;;7.18;;
52816;SDS011;38687;43.330;21.924;2024-03-02T06:16:35;3.78;;;3.03;;
52816;SDS011;38687;43.330;21.924;2024-03-02T06:19:06;4.55;;;2.72;;
52816;SDS011;38687;43.330;21.924;2024-03-02T06:21:32;3.80;;;3.28;;
52816;SDS011;38687;43.330;21.924;2024-03-02T06:23:57;3.40;;;3.10;;
52816;SDS011;38687;43.330;21.924;2024-03-02T06:26:28;4.85;;;3.15;;
52816;SDS011;38687;43.330;21.924;2024-03-02T06:28:55;5.75;;;4.95;;
52816;SDS011;38687;43.330;21.924;2024-03-02T06:31:20;10.55;;;8.95;;
52816;SDS011;38687;43.330;21.924;2024-03-02T06:33:45;7.00;;;5.95;;
52816;SDS011;38687;43.330;21.924;2024-03-02T06:36:10;8.25;;;7.28;;
52816;SDS011;38687;43.330;21.924;2024-03-02T06:38:37;5.65;;;5.10;;
52816;SDS011;38687;43.330;21.924;2024-03-02T06:41:02;10.82;;;7.75;;
52816;SDS011;38687;43.330;21.924;2024-03-02T06:43:30;14.73;;;9.60;;
52816;SDS011;38687;43.330;21.924;2024-03-02T06:45:55;13.68;;;12.45;;
52816;SDS011;38687;43.330;21.924;2024-03-02T06:48:21;5.82;;;5.32;;
52816;SDS011;38687;43.330;21.924;2024-03-02T06:50:49;6.05;;;3.72;;
52816;SDS011;38687;43.330;21.924;2024-03-02T06:53:15;8.02;;;5.60;;
52816;SDS011;38687;43.330;21.924;2024-03-02T06:55:44;6.22;;;5.63;;
52816;SDS011;38687;43.330;21.924;2024-03-02T06:58:10;12.35;;;11.15;;
52816;SDS011;38687;43.330;21.924;2024-03-02T07:00:39;7.93;;;7.20;;
52816;SDS011;38687;43.330;21.924;2024-03-02T07:03:04;7.95;;;4.93;;
52816;SDS011;38687;43.330;21.924;2024-03-02T07:05:29;7.47;;;5.10;;
52816;SDS011;38687;43.330;21.924;2024-03-02T07:07:55;7.05;;;4.68;;
52816;SDS011;38687;43.330;21.924;2024-03-02T07:10:20;8.40;;;7.60;;
52816;SDS011;38687;43.330;21.924;2024-03-02T07:12:45;5.70;;;5.10;;
52816;SDS011;38687;43.330;21.924;2024-03-02T07:15:13;17.10;;;11.98;;
52816;SDS011;38687;43.330;21.924;2024-03-02T07:20:25;11.15;;;9.60;;
52816;SDS011;38687;43.330;21.924;2024-03-02T07:22:54;10.10;;;9.10;;
52816;SDS011;38687;43.330;21.924;2024-03-02T07:25:19;7.95;;;5.15;;
52816;SDS011;38687;43.330;21.924;2024-03-02T07:27:44;9.95;;;8.68;;
52816;SDS011;38687;43.330;21.924;2024-03-02T07:30:12;9.75;;;6.93;;
52816;SDS011;38687;43.330;21.924;2024-03-02T07:32:38;15.27;;;12.48;;
52816;SDS011;38687;43.330;21.924;2024-03-02T07:35:04;10.32;;;6.65;;
52816;SDS011;38687;43.330;21.924;2024-03-02T07:37:32;11.50;;;6.88;;
52816;SDS011;38687;43.330;21.924;2024-03-02T07:40:01;16.80;;;15.15;;
52816;SDS011;38687;43.330;21.924;2024-03-02T07:42:26;15.77;;;10.15;;
52816;SDS011;38687;43.330;21.924;2024-03-02T07:44:52;14.57;;;7.93;;
52816;SDS011;38687;43.330;21.924;2024-03-02T07:47:17;8.70;;;7.68;;
52816;SDS011;38687;43.330;21.924;2024-03-02T07:49:44;6.90;;;4.40;;
52816;SDS011;38687;43.330;21.924;2024-03-02T07:52:12;9.73;;;8.73;;
52816;SDS011;38687;43.330;21.924;2024-03-02T07:54:37;7.60;;;6.90;;
52816;SDS011;38687;43.330;21.924;2024-03-02T07:57:03;6.13;;;5.53;;
52816;SDS011;38687;43.330;21.924;2024-03-02T07:59:28;6.93;;;4.53;;
52816;SDS011;38687;43.330;21.924;2024-03-02T08:01:53;7.25;;;6.50;;
52816;SDS011;38687;43.330;21.924;2024-03-02T08:04:20;3.95;;;2.58;;
52816;SDS011;38687;43.330;21.924;2024-03-02T08:06:48;7.50;;;5.40;;
52816;SDS011;38687;43.330;21.924;2024-03-02T08:09:17;12.23;;;10.45;;
52816;SDS011;38687;43.330;21.924;2024-03-02T08:11:42;7.90;;;7.18;;
52816;SDS011;38687;43.330;21.924;2024-03-02T08:14:07;7.93;;;7.07;;
52816;SDS011;38687;43.330;21.924;2024-03-02T08:16:33;9.13;;;5.25;;
52816;SDS011;38687;43.330;21.924;2024-03-02T08:18:58;11.77;;;9.50;;
52816;SDS011;38687;43.330;21.924;2024-03-02T08:21:24;8.63;;;7.82;;
52816;SDS011;38687;43.330;21.924;2024-03-02T08:23:53;8.15;;;4.90;;
52816;SDS011;38687;43.330;21.924;2024-03-02T08:26:18;9.95;;;6.72;;
52816;SDS011;38687;43.330;21.924;2024-03-02T08:28:46;11.68;;;10.48;;
52816;SDS011;38687;43.330;21.924;2024-03-02T08:31:14;9.98;;;8.85;;
52816;SDS011;38687;43.330;21.924;2024-03-02T08:33:40;10.18;;;8.27;;
52816;SDS011;38687;43.330;21.924;2024-03-02T08:36:05;10.82;;;6.32;;
52816;SDS011;38687;43.330;21.924;2024-03-02T08:38:31;20.27;;;16.88;;
52816;SDS011;38687;43.330;21.924;2024-03-02T08:40:56;18.63;;;8.30;;
52816;SDS011;38687;43.330;21.924;2024-03-02T08:43:21;8.98;;;7.95;;
52816;SDS011;38687;43.330;21.924;2024-03-02T08:45:48;8.95;;;7.65;;
52816;SDS011;38687;43.330;21.924;2024-03-02T08:48:13;8.35;;;7.28;;
52816;SDS011;38687;43.330;21.924;2024-03-02T08:50:38;8.90;;;4.22;;
52816;SDS011;38687;43.330;21.924;2024-03-02T08:53:03;10.55;;;9.20;;
52816;SDS011;38687;43.330;21.924;2024-03-02T08:55:29;8.48;;;4.05;;
52816;SDS011;38687;43.330;21.924;2024-03-02T08:57:54;11.32;;;8.98;;
52816;SDS011;38687;43.330;21.924;2024-03-02T09:00:20;14.80;;;12.65;;
52816;SDS011;38687;43.330;21.924;2024-03-02T09:02:45;8.55;;;5.20;;
52816;SDS011;38687;43.330;21.924;2024-03-02T09:05:12;20.02;;;18.23;;
52816;SDS011;38687;43.330;21.924;2024-03-02T09:07:37;12.40;;;11.38;;
52816;SDS011;38687;43.330;21.924;2024-03-02T09:10:04;10.75;;;9.75;;
52816;SDS011;38687;43.330;21.924;2024-03-02T09:12:36;10.00;;;6.43;;
52816;SDS011;38687;43.330;21.924;2024-03-02T09:15:02;13.77;;;11.48;;
52816;SDS011;38687;43.330;21.924;2024-03-02T09:17:31;7.72;;;6.90;;
52816;SDS011;38687;43.330;21.924;2024-03-02T09:19:56;6.90;;;6.20;;
52816;SDS011;38687;43.330;21.924;2024-03-02T09:22:22;9.10;;;7.97;;
52816;SDS011;38687;43.330;21.924;2024-03-02T09:24:48;13.13;;;11.52;;
52816;SDS011;38687;43.330;21.924;2024-03-02T09:27:13;18.42;;;12.32;;
52816;SDS011;38687;43.330;21.924;2024-03-02T09:29:38;34.92;;;20.48;;
52816;SDS011;38687;43.330;21.924;2024-03-02T09:32:04;33.78;;;19.98;;
52816;SDS011;38687;43.330;21.924;2024-03-02T09:34:30;44.92;;;25.67;;
52816;SDS011;38687;43.330;21.924;2024-03-02T09:36:56;8.93;;;4.75;;
52816;SDS011;38687;43.330;21.924;2024-03-02T09:39:22;16.65;;;9.88;;
52816;SDS011;38687;43.330;21.924;2024-03-02T09:41:47;19.15;;;14.40;;
52816;SDS011;38687;43.330;21.924;2024-03-02T09:44:13;11.60;;;10.35;;
52816;SDS011;38687;43.330;21.924;2024-03-02T09:46:38;12.32;;;10.40;;
52816;SDS011;38687;43.330;21.924;2024-03-02T09:49:03;11.02;;;8.27;;
52816;SDS011;38687;43.330;21.924;2024-03-02T09:51:29;13.40;;;11.70;;
52816;SDS011;38687;43.330;21.924;2024-03-02T09:53:55;7.93;;;7.13;;
52816;SDS011;38687;43.330;21.924;2024-03-02T09:56:20;10.27;;;9.02;;
52816;SDS011;38687;43.330;21.924;2024-03-02T09:58:46;12.05;;;8.80;;
52816;SDS011;38687;43.330;21.924;2024-03-02T10:01:12;13.65;;;12.10;;
52816;SDS011;38687;43.330;21.924;2024-03-02T10:03:37;22.50;;;18.48;;
52816;SDS011;38687;43.330;21.924;2024-03-02T10:08:46;14.18;;;11.35;;
52816;SDS011;38687;43.330;21.924;2024-03-02T10:11:29;9.38;;;8.15;;
52816;SDS011;38687;43.330;21.924;2024-03-02T10:14:11;5.80;;;5.18;;
52816;SDS011;38687;43.330;21.924;2024-03-02T10:16:38;6.97;;;6.28;;
52816;SDS011;38687;43.330;21.924;2024-03-02T10:21:51;10.40;;;8.38;;
52816;SDS011;38687;43.330;21.924;2024-03-02T10:24:16;7.55;;;6.80;;
52816;SDS011;38687;43.330;21.924;2024-03-02T10:26:42;6.78;;;5.97;;
52816;SDS011;38687;43.330;21.924;2024-03-02T10:29:11;8.38;;;7.57;;
52816;SDS011;38687;43.330;21.924;2024-03-02T10:31:37;10.85;;;9.20;;
52816;SDS011;38687;43.330;21.924;2024-03-02T10:34:02;8.18;;;7.35;;
52816;SDS011;38687;43.330;21.924;2024-03-02T10:36:28;8.48;;;7.10;;
52816;SDS011;38687;43.330;21.924;2024-03-02T10:38:53;6.00;;;5.38;;
52816;SDS011;38687;43.330;21.924;2024-03-02T10:41:24;7.40;;;5.90;;
52816;SDS011;38687;43.330;21.924;2024-03-02T10:43:51;15.45;;;12.07;;
52816;SDS011;38687;43.330;21.924;2024-03-02T10:46:19;8.10;;;6.47;;
52816;SDS011;38687;43.330;21.924;2024-03-02T10:48:44;6.38;;;5.28;;
52816;SDS011;38687;43.330;21.924;2024-03-02T10:51:10;13.05;;;9.95;;
52816;SDS011;38687;43.330;21.924;2024-03-02T10:53:36;7.80;;;5.95;;
52816;SDS011;38687;43.330;21.924;2024-03-02T10:56:04;6.70;;;6.10;;
52816;SDS011;38687;43.330;21.924;2024-03-02T10:58:32;10.48;;;8.65;;
52816;SDS011;38687;43.330;21.924;2024-03-02T11:01:03;7.90;;;6.90;;
52816;SDS011;38687;43.330;21.924;2024-03-02T11:03:35;7.15;;;5.60;;
52816;SDS011;38687;43.330;21.924;2024-03-02T11:06:00;8.20;;;7.38;;
52816;SDS011;38687;43.330;21.924;2024-03-02T11:08:31;5.70;;;5.20;;
52816;SDS011;38687;43.330;21.924;2024-03-02T11:10:58;7.25;;;5.90;;
52816;SDS011;38687;43.330;21.924;2024-03-02T11:13:33;7.85;;;6.45;;
52816;SDS011;38687;43.330;21.924;2024-03-02T11:18:44;10.52;;;7.47;;
52816;SDS011;38687;43.330;21.924;2024-03-02T11:21:09;6.93;;;6.22;;
52816;SDS011;38687;43.330;21.924;2024-03-02T11:23:35;7.47;;;6.30;;
52816;SDS011;38687;43.330;21.924;2024-03-02T11:28:44;10.65;;;9.20;;
52816;SDS011;38687;43.330;21.924;2024-03-02T11:31:10;7.93;;;7.05;;
52816;SDS011;38687;43.330;21.924;2024-03-02T11:33:35;8.13;;;7.25;;
52816;SDS011;38687;43.330;21.924;2024-03-02T11:36:05;7.65;;;6.65;;
52816;SDS011;38687;43.330;21.924;2024-03-02T11:38:32;6.93;;;6.18;;
52816;SDS011;38687;43.330;21.924;2024-03-02T11:40:59;8.55;;;7.40;;
52816;SDS011;38687;43.330;21.924;2024-03-02T11:43:28;6.22;;;5.63;;
52816;SDS011;38687;43.330;21.924;2024-03-02T11:45:56;7.38;;;6.65;;
52816;SDS011;38687;43.330;21.924;2024-03-02T11:48:22;7.55;;;6.38;;
52816;SDS011;38687;43.330;21.924;2024-03-02T11:50:49;6.38;;;5.72;;
52816;SDS011;38687;43.330;21.924;2024-03-02T11:53:15;5.07;;;4.55;;
52816;SDS011;38687;43.330;21.924;2024-03-02T11:55:40;6.75;;;6.05;;
52816;SDS011;38687;43.330;21.924;2024-03-02T11:58:09;7.70;;;6.90;;
52816;SDS011;38687;43.330;21.924;2024-03-02T12:00:35;5.95;;;4.10;;
52816;SDS011;38687;43.330;21.924;2024-03-02T12:03:04;6.05;;;5.18;;
52816;SDS011;38687;43.330;21.924;2024-03-02T12:05:30;8.20;;;6.80;;
52816;SDS011;38687;43.330;21.924;2024-03-02T12:07:59;4.75;;;4.25;;
52816;SDS011;38687;43.330;21.924;2024-03-02T12:10:25;5.85;;;5.25;;
52816;SDS011;38687;43.330;21.924;2024-03-02T12:13:00;9.05;;;7.68;;
52816;SDS011;38687;43.330;21.924;2024-03-02T12:15:28;6.65;;;5.50;;
52816;SDS011;38687;43.330;21.924;2024-03-02T12:17:56;9.02;;;6.93;;
52816;SDS011;38687;43.330;21.924;2024-03-02T12:20:22;7.22;;;5.60;;
52816;SDS011;38687;43.330;21.924;2024-03-02T12:22:49;5.85;;;5.25;;
52816;SDS011;38687;43.330;21.924;2024-03-02T12:25:22;5.40;;;4.90;;
52816;SDS011;38687;43.330;21.924;2024-03-02T12:27:49;5.15;;;4.65;;
52816;SDS011;38687;43.330;21.924;2024-03-02T12:30:19;4.75;;;4.30;;
52816;SDS011;38687;43.330;21.924;2024-03-02T12:32:45;5.90;;;4.50;;
52816;SDS011;38687;43.330;21.924;2024-03-02T12:35:10;5.15;;;4.65;;
52816;SDS011;38687;43.330;21.924;2024-03-02T12:37:52;6.40;;;5.53;;
52816;SDS011;38687;43.330;21.924;2024-03-02T12:40:18;4.47;;;4.07;;
52816;SDS011;38687;43.330;21.924;2024-03-02T12:42:43;5.43;;;4.93;;
52816;SDS011;38687;43.330;21.924;2024-03-02T12:45:12;5.53;;;4.93;;
52816;SDS011;38687;43.330;21.924;2024-03-02T12:47:38;7.90;;;7.10;;
52816;SDS011;38687;43.330;21.924;2024-03-02T12:50:04;5.15;;;4.40;;
52816;SDS011;38687;43.330;21.924;2024-03-02T12:52:30;5.40;;;4.90;;
52816;SDS011;38687;43.330;21.924;2024-03-02T12:55:02;5.20;;;4.72;;
52816;SDS011;38687;43.330;21.924;2024-03-02T12:57:29;7.78;;;6.97;;
52816;SDS011;38687;43.330;21.924;2024-03-02T12:59:58;7.15;;;6.00;;
52816;SDS011;38687;43.330;21.924;2024-03-02T13:02:26;9.45;;;7.72;;
52816;SDS011;38687;43.330;21.924;2024-03-02T13:04:53;7.82;;;6.13;;
52816;SDS011;38687;43.330;21.924;2024-03-02T13:07:22;4.95;;;4.30;;
52816;SDS011;38687;43.330;21.924;2024-03-02T13:09:48;3.78;;;3.47;;
52816;SDS011;38687;43.330;21.924;2024-03-02T13:12:14;5.05;;;4.65;;
52816;SDS011;38687;43.330;21.924;2024-03-02T13:14:40;6.80;;;4.85;;
52816;SDS011;38687;43.330;21.924;2024-03-02T13:17:07;5.25;;;4.75;;
52816;SDS011;38687;43.330;21.924;2024-03-02T13:19:33;4.85;;;4.35;;
52816;SDS011;38687;43.330;21.924;2024-03-02T13:21:58;7.28;;;5.18;;
52816;SDS011;38687;43.330;21.924;2024-03-02T13:24:29;6.53;;;5.30;;
52816;SDS011;38687;43.330;21.924;2024-03-02T13:26:58;9.07;;;6.82;;
52816;SDS011;38687;43.330;21.924;2024-03-02T13:29:25;15.60;;;10.48;;
52816;SDS011;38687;43.330;21.924;2024-03-02T13:31:50;10.75;;;7.32;;
52816;SDS011;38687;43.330;21.924;2024-03-02T13:34:16;9.27;;;7.50;;
52816;SDS011;38687;43.330;21.924;2024-03-02T13:36:44;10.05;;;7.20;;
52816;SDS011;38687;43.330;21.924;2024-03-02T13:39:10;10.73;;;8.15;;
52816;SDS011;38687;43.330;21.924;2024-03-02T13:41:36;10.35;;;7.55;;
52816;SDS011;38687;43.330;21.924;2024-03-02T13:44:02;8.20;;;6.70;;
52816;SDS011;38687;43.330;21.924;2024-03-02T13:46:27;9.20;;;6.78;;
52816;SDS011;38687;43.330;21.924;2024-03-02T13:48:53;26.05;;;19.83;;
52816;SDS011;38687;43.330;21.924;2024-03-02T13:51:19;14.60;;;12.35;;
52816;SDS011;38687;43.330;21.924;2024-03-02T13:53:45;11.70;;;8.55;;
52816;SDS011;38687;43.330;21.924;2024-03-02T13:56:10;8.43;;;7.10;;
52816;SDS011;38687;43.330;21.924;2024-03-02T13:58:35;12.45;;;9.30;;
52816;SDS011;38687;43.330;21.924;2024-03-02T14:01:01;9.00;;;6.95;;
52816;SDS011;38687;43.330;21.924;2024-03-02T14:03:29;10.25;;;8.40;;
52816;SDS011;38687;43.330;21.924;2024-03-02T14:05:58;12.68;;;8.65;;
52816;SDS011;38687;43.330;21.924;2024-03-02T14:08:23;10.20;;;7.07;;
52816;SDS011;38687;43.330;21.924;2024-03-02T14:10:48;10.70;;;7.20;;
52816;SDS011;38687;43.330;21.924;2024-03-02T14:13:14;8.43;;;5.90;;
52816;SDS011;38687;43.330;21.924;2024-03-02T14:15:40;7.88;;;5.07;;
52816;SDS011;38687;43.330;21.924;2024-03-02T14:18:06;4.85;;;4.00;;
52816;SDS011;38687;43.330;21.924;2024-03-02T14:20:31;5.97;;;5.38;;
52816;SDS011;38687;43.330;21.924;2024-03-02T14:23:07;6.10;;;5.47;;
52816;SDS011;38687;43.330;21.924;2024-03-02T14:25:32;7.97;;;5.40;;
52816;SDS011;38687;43.330;21.924;2024-03-02T14:27:59;6.65;;;5.97;;
52816;SDS011;38687;43.330;21.924;2024-03-02T14:30:24;11.32;;;7.38;;
52816;SDS011;38687;43.330;21.924;2024-03-02T14:32:49;11.20;;;8.63;;
52816;SDS011;38687;43.330;21.924;2024-03-02T14:35:18;10.82;;;6.50;;
52816;SDS011;38687;43.330;21.924;2024-03-02T14:37:47;7.22;;;4.53;;
52816;SDS011;38687;43.330;21.924;2024-03-02T14:40:12;10.95;;;9.00;;
52816;SDS011;38687;43.330;21.924;2024-03-02T14:42:38;9.10;;;7.15;;